Gyumri, Armenia
Current Conditions -  °F | °C
As of 5:30 PM on Friday 31 Oct 2014 (Local Time) from UDSG Reporting Station
Broken Clouds Broken Clouds  
Wind Chill: 52°   Ceiling: 10000
Heat Index: 52°   Visibility: 6mi
Dew Point: 37°   Wind: 2mph
Humidity: 58%   Direction: NA
Pressure: 29.94"   Gusts: NA
Location:  40.78°N, 43.83°E
Report Text: UDSG 311230Z VRB01MPS 9000 SCT033 BKN100 11/03 Q1014 R02/CLRD70NOSIG
Loading
Personal Weather Stations






























Interactive Weather Map
Tropical Storm Tracking
New forecast layout! Learn more

10-Day Weather Forecast

Advertisements
Track Severe Weather on mobile